Destruction Bay, Canada
Current Conditions -  °F | °C
As of 6:00 PM on Saturday 25 Oct 2014 (Local Time) from CYDB Reporting Station
Overcast Overcast  
Wind Chill: 18°   Ceiling: 2400
Heat Index: 25°   Visibility: 9mi
Dew Point: 21°   Wind: 6mph
Humidity: 86%   Direction: 310°NW
Pressure: 29.74"   Gusts: NA
Location:  61.25°N, 138.8°W
Report Text: CYDB 260100Z AUTO 31005KT 9SM OVC024 M04/M06 A2974 RMK SLP123
Loading
Personal Weather Stations






























Interactive Weather Map
Tropical Storm Tracking
New forecast layout! Learn more

10-Day Weather Forecast

Advertisements
Track Severe Weather on mobile